createdAt,value
2022-08-17T00:01:51.590Z,63.70
2022-08-17T00:04:19.872Z,63.70
2022-08-17T00:06:49.319Z,63.70
2022-08-17T00:09:18.420Z,63.80
2022-08-17T00:12:42.248Z,63.90
2022-08-17T00:14:35.987Z,64.10
2022-08-17T00:17:04.592Z,64.10
2022-08-17T00:19:33.028Z,64.10
2022-08-17T00:22:34.933Z,64.20
2022-08-17T00:24:50.097Z,64.10
2022-08-17T00:27:17.448Z,64.10
2022-08-17T00:29:45.726Z,64.40
2022-08-17T00:33:10.929Z,64.30
2022-08-17T00:35:00.253Z,64.20
2022-08-17T00:37:26.929Z,64.30
2022-08-17T00:39:53.653Z,64.30
2022-08-17T00:42:20.367Z,64.20
2022-08-17T00:44:47.316Z,64.30
2022-08-17T00:47:13.991Z,65.30
2022-08-17T00:49:40.844Z,64.40
2022-08-17T00:52:16.606Z,64.40
2022-08-17T00:54:46.929Z,64.40
2022-08-17T00:57:27.358Z,64.40
2022-08-17T01:00:03.027Z,64.50
2022-08-17T01:02:42.619Z,64.30
2022-08-17T01:05:15.262Z,64.30
2022-08-17T01:07:43.337Z,64.30
2022-08-17T01:10:59.967Z,64.30
2022-08-17T01:13:02.449Z,64.20
2022-08-17T01:15:38.346Z,64.20
2022-08-17T01:18:09.563Z,64.20
2022-08-17T01:20:48.140Z,64.10
2022-08-17T01:23:20.451Z,64.20
2022-08-17T01:25:54.633Z,64.10
2022-08-17T01:28:52.688Z,64.10
2022-08-17T01:31:09.814Z,63.90
2022-08-17T01:33:37.217Z,63.90
2022-08-17T01:36:06.856Z,63.90
2022-08-17T01:38:35.313Z,63.80
2022-08-17T01:41:06.542Z,63.70
2022-08-17T01:43:41.331Z,63.90
2022-08-17T01:46:08.078Z,63.90
2022-08-17T01:48:38.128Z,64.20
2022-08-17T01:51:07.564Z,64.20
2022-08-17T01:53:39.699Z,64.40
2022-08-17T01:56:10.296Z,64.70
2022-08-17T01:58:39.449Z,65.30
2022-08-17T02:01:07.313Z,65.70
2022-08-17T02:03:36.126Z,66.00
2022-08-17T02:06:05.411Z,66.30
2022-08-17T02:08:38.093Z,66.40
2022-08-17T02:11:11.902Z,66.90
2022-08-17T02:13:39.137Z,67.00
2022-08-17T02:16:06.070Z,67.30
2022-08-17T02:18:33.094Z,67.60
2022-08-17T02:21:00.306Z,67.80
2022-08-17T02:23:30.317Z,68.10
2022-08-17T02:25:59.324Z,68.30
2022-08-17T02:28:28.298Z,68.30
2022-08-17T02:31:01.434Z,68.40
2022-08-17T02:33:41.637Z,68.80
2022-08-17T02:36:10.913Z,69.20
2022-08-17T02:38:39.391Z,69.50
2022-08-17T02:41:06.710Z,69.90
2022-08-17T02:43:33.590Z,70.10
2022-08-17T02:46:00.373Z,70.30
2022-08-17T02:48:29.698Z,70.50
2022-08-17T02:50:58.566Z,70.70
2022-08-17T02:53:25.775Z,70.80
2022-08-17T02:55:53.479Z,70.90
2022-08-17T02:58:32.067Z,71.00
2022-08-17T03:01:04.531Z,71.10
2022-08-17T03:03:31.350Z,71.20
2022-08-17T03:05:58.074Z,71.40
2022-08-17T03:08:25.459Z,71.50
2022-08-17T03:10:52.569Z,71.50
2022-08-17T03:13:19.441Z,71.60
2022-08-17T03:15:47.087Z,71.70
2022-08-17T03:18:24.363Z,71.80
2022-08-17T03:20:55.409Z,71.80
2022-08-17T03:23:24.051Z,71.90
2022-08-17T03:25:52.783Z,72.00
2022-08-17T03:28:21.169Z,72.30
2022-08-17T03:30:48.062Z,72.50
2022-08-17T03:33:14.951Z,72.70
2022-08-17T03:35:42.048Z,73.20
2022-08-17T03:38:10.438Z,73.60
2022-08-17T03:40:58.204Z,73.90
2022-08-17T03:43:25.351Z,73.90
2022-08-17T03:46:34.066Z,73.70
2022-08-17T03:49:15.903Z,73.80
2022-08-17T03:52:01.535Z,73.90
2022-08-17T03:54:47.054Z,74.00
2022-08-17T03:57:13.875Z,74.00
2022-08-17T03:59:41.155Z,73.90
2022-08-17T04:02:30.450Z,73.90
2022-08-17T04:04:57.922Z,74.00
2022-08-17T04:07:27.476Z,73.90
2022-08-17T04:09:54.658Z,73.90
2022-08-17T04:12:23.583Z,74.00
2022-08-17T04:14:53.637Z,74.00
2022-08-17T04:17:26.379Z,74.10
2022-08-17T04:19:54.317Z,74.00
2022-08-17T04:22:30.333Z,74.00
2022-08-17T04:24:58.955Z,74.20
2022-08-17T04:27:25.825Z,74.10
2022-08-17T04:29:54.702Z,74.20
2022-08-17T04:32:59.336Z,74.20
2022-08-17T04:35:10.731Z,74.20
2022-08-17T04:37:38.021Z,74.30
2022-08-17T04:40:27.243Z,74.40
2022-08-17T04:43:05.801Z,74.50
2022-08-17T04:45:33.317Z,74.50
2022-08-17T04:48:00.786Z,74.50
2022-08-17T04:50:27.664Z,74.50
2022-08-17T04:52:54.564Z,74.60
2022-08-17T04:55:21.665Z,74.80
2022-08-17T04:57:48.399Z,75.00
2022-08-17T05:00:15.490Z,75.10
2022-08-17T05:02:50.919Z,75.20
2022-08-17T05:05:20.041Z,75.00
2022-08-17T05:07:47.852Z,75.20
2022-08-17T05:10:14.597Z,75.20
2022-08-17T05:12:41.300Z,75.20
2022-08-17T05:15:12.502Z,75.30
2022-08-17T05:17:39.164Z,75.40
2022-08-17T05:20:06.298Z,75.70
2022-08-17T05:22:32.953Z,75.70
2022-08-17T05:24:59.779Z,75.80
2022-08-17T05:27:29.370Z,75.90
2022-08-17T05:30:02.591Z,76.00
2022-08-17T05:32:38.257Z,76.00
2022-08-17T05:35:07.430Z,76.10
2022-08-17T05:37:34.141Z,76.30
2022-08-17T05:40:00.881Z,76.40
2022-08-17T05:42:27.616Z,76.20
2022-08-17T05:44:57.765Z,76.20
2022-08-17T05:47:26.088Z,76.10
2022-08-17T05:49:53.910Z,76.70
2022-08-17T05:52:39.002Z,76.00
2022-08-17T05:55:38.366Z,76.10
2022-08-17T05:58:27.677Z,76.20
2022-08-17T06:01:13.114Z,75.80
2022-08-17T06:04:04.882Z,75.80
2022-08-17T06:06:44.742Z,75.80
2022-08-17T06:09:34.635Z,75.80
2022-08-17T06:12:34.918Z,75.90
2022-08-17T06:15:01.541Z,75.60
2022-08-17T06:17:29.296Z,75.60
2022-08-17T06:20:14.320Z,75.40
2022-08-17T06:22:51.817Z,75.50
2022-08-17T06:25:26.081Z,75.40
2022-08-17T06:28:04.623Z,75.40
2022-08-17T06:30:59.107Z,75.50
2022-08-17T06:33:36.357Z,75.40
2022-08-17T06:36:14.599Z,75.40
2022-08-17T06:38:59.340Z,75.40
2022-08-17T06:41:43.502Z,75.40
2022-08-17T06:44:42.207Z,75.40
2022-08-17T06:47:12.465Z,75.50
2022-08-17T06:50:07.078Z,75.50
2022-08-17T06:52:46.860Z,75.70
2022-08-17T06:55:21.277Z,75.40
2022-08-17T06:57:55.158Z,76.40
2022-08-17T07:00:27.769Z,75.80
2022-08-17T07:03:16.382Z,75.80
2022-08-17T07:05:48.138Z,75.80
2022-08-17T07:08:35.161Z,75.80
2022-08-17T07:11:08.469Z,75.90
2022-08-17T07:13:59.887Z,75.70
2022-08-17T07:16:38.795Z,76.10
2022-08-17T07:19:07.340Z,75.90
2022-08-17T07:22:08.942Z,75.90
2022-08-17T07:24:48.663Z,75.80
2022-08-17T07:27:21.257Z,75.70
2022-08-17T07:30:16.346Z,75.70
2022-08-17T07:32:59.354Z,76.60
2022-08-17T07:35:31.342Z,75.70
2022-08-17T07:38:26.980Z,75.60
2022-08-17T07:41:06.153Z,75.80
2022-08-17T07:43:41.680Z,75.80
2022-08-17T07:46:29.957Z,75.70
2022-08-17T07:49:03.055Z,75.70
2022-08-17T07:51:44.330Z,75.70
2022-08-17T07:54:22.747Z,75.60
2022-08-17T07:56:51.202Z,75.70
2022-08-17T07:59:28.048Z,75.70
2022-08-17T08:02:03.653Z,75.50
2022-08-17T08:07:31.944Z,75.20
2022-08-17T08:10:14.527Z,75.20
2022-08-17T08:12:47.460Z,75.20
2022-08-17T08:15:22.243Z,75.00
2022-08-17T08:17:58.559Z,75.00
2022-08-17T08:20:56.610Z,75.10
2022-08-17T08:23:32.139Z,75.00
2022-08-17T08:26:18.749Z,75.00
2022-08-17T08:29:18.189Z,74.90
2022-08-17T08:31:57.594Z,75.00
2022-08-17T08:34:58.654Z,74.90
2022-08-17T08:37:33.637Z,74.80
2022-08-17T08:40:07.324Z,75.50
2022-08-17T08:43:03.875Z,74.20
2022-08-17T08:45:51.777Z,73.70
2022-08-17T08:48:52.877Z,72.80
2022-08-17T08:51:59.233Z,72.60
2022-08-17T08:54:51.945Z,72.00
2022-08-17T08:57:26.745Z,71.90
2022-08-17T09:00:13.248Z,71.70
2022-08-17T09:03:08.358Z,71.30
2022-08-17T09:06:03.614Z,70.80
2022-08-17T09:08:45.898Z,70.50
2022-08-17T09:12:02.412Z,70.50
2022-08-17T09:14:51.546Z,70.10
2022-08-17T09:17:35.525Z,69.80
2022-08-17T09:20:28.174Z,69.70
2022-08-17T09:23:07.897Z,69.70
2022-08-17T09:25:49.772Z,69.40
2022-08-17T09:28:30.574Z,69.00
2022-08-17T09:31:04.206Z,68.90
2022-08-17T09:33:36.928Z,68.70
2022-08-17T09:36:10.221Z,68.70
2022-08-17T09:39:05.897Z,68.30
2022-08-17T09:41:49.472Z,68.40
2022-08-17T09:44:38.405Z,69.70
2022-08-17T09:47:26.357Z,70.40
2022-08-17T09:50:03.334Z,70.70
2022-08-17T09:52:31.282Z,71.10
2022-08-17T09:55:00.027Z,71.20
2022-08-17T09:57:44.814Z,71.60
2022-08-17T10:00:27.606Z,72.00
2022-08-17T10:03:04.408Z,72.40
2022-08-17T10:05:48.830Z,72.80
2022-08-17T10:08:42.403Z,73.10
2022-08-17T10:11:20.160Z,73.40
2022-08-17T10:13:59.572Z,73.60
2022-08-17T10:16:45.979Z,73.90
2022-08-17T10:19:18.310Z,73.90
2022-08-17T10:22:14.684Z,73.80
2022-08-17T10:25:23.089Z,73.70
2022-08-17T10:28:04.550Z,73.80
2022-08-17T10:30:35.581Z,73.80
2022-08-17T10:33:06.734Z,73.60
2022-08-17T10:35:37.644Z,73.80
2022-08-17T10:38:12.569Z,73.80
2022-08-17T10:41:14.131Z,73.90
2022-08-17T10:44:38.659Z,74.10
2022-08-17T10:47:08.209Z,74.00
2022-08-17T10:49:47.377Z,74.10
2022-08-17T10:52:20.193Z,74.00
2022-08-17T10:54:58.523Z,74.00
2022-08-17T10:57:42.489Z,73.80
2022-08-17T11:00:16.929Z,74.10
2022-08-17T11:02:55.823Z,72.90
2022-08-17T11:06:15.304Z,72.90
2022-08-17T11:09:15.929Z,73.40
2022-08-17T11:12:06.758Z,73.40
2022-08-17T11:14:43.924Z,73.50
2022-08-17T11:17:54.909Z,73.70
2022-08-17T11:20:53.825Z,73.50
2022-08-17T11:23:29.339Z,73.60
2022-08-17T11:25:59.019Z,73.20
2022-08-17T11:28:34.306Z,72.90
2022-08-17T11:31:39.056Z,72.70
2022-08-17T11:34:26.385Z,72.10
2022-08-17T11:37:00.951Z,72.50
2022-08-17T11:39:51.090Z,72.80
2022-08-17T11:42:26.414Z,72.80
2022-08-17T11:44:55.789Z,73.60
2022-08-17T11:48:26.771Z,73.50
2022-08-17T11:51:08.994Z,73.60
2022-08-17T11:53:38.528Z,73.80
2022-08-17T11:56:26.704Z,73.50
2022-08-17T11:58:53.414Z,73.60
2022-08-17T12:01:22.931Z,73.80
2022-08-17T12:03:55.853Z,74.20
2022-08-17T12:06:30.771Z,74.50
2022-08-17T12:09:18.637Z,74.50
2022-08-17T12:11:58.700Z,75.00
2022-08-17T12:15:08.410Z,75.10
2022-08-17T12:17:39.175Z,75.20
2022-08-17T12:20:14.996Z,75.50
2022-08-17T12:23:36.906Z,75.70
2022-08-17T12:26:22.094Z,76.30
2022-08-17T12:28:53.754Z,76.50
2022-08-17T12:31:25.694Z,76.60
2022-08-17T12:33:52.770Z,77.00
2022-08-17T12:36:26.533Z,77.10
2022-08-17T12:39:00.046Z,77.20
2022-08-17T12:41:44.770Z,77.40
2022-08-17T12:44:12.114Z,77.40
2022-08-17T12:46:49.271Z,78.00
2022-08-17T12:49:27.140Z,77.40
2022-08-17T12:52:30.137Z,77.40
2022-08-17T12:55:06.154Z,77.80
2022-08-17T12:57:41.275Z,77.50
2022-08-17T13:00:17.788Z,77.40
2022-08-17T13:02:51.395Z,77.40
2022-08-17T13:05:27.677Z,77.30
2022-08-17T13:07:56.698Z,77.40
2022-08-17T13:10:33.283Z,77.30
2022-08-17T13:13:17.578Z,77.50
2022-08-17T13:15:57.028Z,77.50
2022-08-17T13:18:45.360Z,77.50
2022-08-17T13:21:22.129Z,77.80
2022-08-17T13:23:55.984Z,77.50
2022-08-17T13:26:34.326Z,77.70
2022-08-17T13:29:06.060Z,77.80
2022-08-17T13:31:52.636Z,77.90
2022-08-17T13:34:29.097Z,78.20
2022-08-17T13:37:30.695Z,78.20
2022-08-17T13:40:00.378Z,78.60
2022-08-17T13:42:31.483Z,78.40
2022-08-17T13:44:59.696Z,78.40
2022-08-17T13:47:26.743Z,78.60
2022-08-17T13:49:55.320Z,78.60
2022-08-17T13:52:43.760Z,78.60
2022-08-17T13:55:21.710Z,78.70
2022-08-17T13:58:03.967Z,78.50
2022-08-17T14:00:36.243Z,78.70
2022-08-17T14:03:04.708Z,78.80
2022-08-17T14:05:32.458Z,78.80
2022-08-17T14:08:06.468Z,78.90
2022-08-17T14:10:35.746Z,78.90
2022-08-17T14:13:02.715Z,78.90
2022-08-17T14:15:54.797Z,79.00
2022-08-17T14:18:18.023Z,79.10
2022-08-17T14:21:02.435Z,79.30
2022-08-17T14:23:31.838Z,79.20
2022-08-17T14:25:58.678Z,79.40
2022-08-17T14:28:25.389Z,79.50
2022-08-17T14:30:55.405Z,79.70
2022-08-17T14:33:22.701Z,79.80
2022-08-17T14:35:52.937Z,80.00
2022-08-17T14:38:20.579Z,80.20
2022-08-17T14:40:48.682Z,80.20
2022-08-17T14:43:15.873Z,80.40
2022-08-17T14:45:43.525Z,80.20
2022-08-17T14:48:10.905Z,80.40
2022-08-17T14:50:41.013Z,80.60
2022-08-17T14:53:11.768Z,80.70
2022-08-17T14:55:40.628Z,81.10
2022-08-17T14:58:08.881Z,80.60
2022-08-17T15:00:36.031Z,80.50
2022-08-17T15:03:02.893Z,80.40
2022-08-17T15:05:35.380Z,80.30
2022-08-17T15:08:03.645Z,80.30
2022-08-17T15:10:31.495Z,80.20
2022-08-17T15:13:00.120Z,80.30
2022-08-17T15:15:27.966Z,80.10
2022-08-17T15:17:54.889Z,80.00
2022-08-17T15:20:24.875Z,80.00
2022-08-17T15:22:55.624Z,79.80
2022-08-17T15:25:24.553Z,79.90
2022-08-17T15:27:51.625Z,79.80
2022-08-17T15:30:18.915Z,80.00
2022-08-17T15:32:51.166Z,80.10
2022-08-17T15:35:28.352Z,80.30
2022-08-17T15:38:10.748Z,80.60
2022-08-17T15:40:42.149Z,80.40
2022-08-17T15:43:12.097Z,80.40
2022-08-17T15:45:39.955Z,80.20
2022-08-17T15:48:06.966Z,80.10
2022-08-17T15:50:33.704Z,79.90
2022-08-17T15:53:01.723Z,79.80
2022-08-17T15:55:30.463Z,79.60
2022-08-17T15:57:57.420Z,79.40
2022-08-17T16:00:24.707Z,79.20
2022-08-17T16:03:13.894Z,79.10
2022-08-17T16:05:40.742Z,79.20
2022-08-17T16:08:07.713Z,79.00
2022-08-17T16:10:34.896Z,79.10
2022-08-17T16:13:03.962Z,80.10
2022-08-17T16:15:31.608Z,79.20
2022-08-17T16:17:58.891Z,79.00
2022-08-17T16:20:25.591Z,79.00
2022-08-17T16:22:52.525Z,78.90
2022-08-17T16:25:38.289Z,78.90
2022-08-17T16:28:11.072Z,78.80
2022-08-17T16:30:38.304Z,78.80
2022-08-17T16:33:05.550Z,78.90
2022-08-17T16:35:32.443Z,78.90
2022-08-17T16:37:59.263Z,78.90
2022-08-17T16:40:29.529Z,78.80
2022-08-17T16:42:58.077Z,78.80
2022-08-17T16:45:28.141Z,78.60
2022-08-17T16:47:59.023Z,78.90
2022-08-17T16:50:25.988Z,78.90
2022-08-17T16:52:53.037Z,78.90
2022-08-17T16:55:21.800Z,78.90
2022-08-17T16:57:50.720Z,78.80
2022-08-17T17:00:19.261Z,78.70
2022-08-17T17:02:48.124Z,78.80
2022-08-17T17:05:40.558Z,78.90
2022-08-17T17:08:20.743Z,79.10
2022-08-17T17:10:50.971Z,79.00
2022-08-17T17:13:30.966Z,78.90
2022-08-17T17:16:13.794Z,79.00
2022-08-17T17:18:48.414Z,78.90
2022-08-17T17:21:20.750Z,78.90
2022-08-17T17:23:54.067Z,79.10
2022-08-17T17:26:28.371Z,79.20
2022-08-17T17:29:07.956Z,79.30
2022-08-17T17:31:47.534Z,79.30
2022-08-17T17:34:16.509Z,79.20
2022-08-17T17:36:51.832Z,79.20
2022-08-17T17:39:44.239Z,80.00
2022-08-17T17:42:14.788Z,79.30
2022-08-17T17:45:12.167Z,79.40
2022-08-17T17:47:39.079Z,79.10
2022-08-17T17:50:07.286Z,79.30
2022-08-17T17:52:56.489Z,79.50
2022-08-17T17:55:48.552Z,79.40
2022-08-17T17:58:39.023Z,79.30
2022-08-17T18:01:28.674Z,79.30
2022-08-17T18:04:31.919Z,79.60
2022-08-17T18:07:20.092Z,79.50
2022-08-17T18:09:51.899Z,79.60
2022-08-17T18:12:40.697Z,79.50
2022-08-17T18:15:29.900Z,79.30
2022-08-17T18:18:14.667Z,79.30
2022-08-17T18:20:46.468Z,79.50
2022-08-17T18:23:28.105Z,79.40
2022-08-17T18:25:56.405Z,79.80
2022-08-17T18:28:34.531Z,81.70
2022-08-17T18:31:17.504Z,88.70
2022-08-17T18:33:48.415Z,90.60
2022-08-17T18:36:33.798Z,91.40
2022-08-17T18:39:16.435Z,92.30
2022-08-17T18:41:46.163Z,92.70
2022-08-17T18:44:43.854Z,92.80
2022-08-17T18:47:28.302Z,93.40
2022-08-17T18:50:19.775Z,93.50
2022-08-17T18:52:50.631Z,93.20
2022-08-17T18:55:31.249Z,93.30
2022-08-17T18:58:16.041Z,93.60
2022-08-17T19:00:45.583Z,93.80
2022-08-17T19:03:18.373Z,93.90
2022-08-17T19:05:49.695Z,94.00
2022-08-17T19:08:28.429Z,94.00
2022-08-17T19:11:10.242Z,94.10
2022-08-17T19:13:51.483Z,94.30
2022-08-17T19:16:31.952Z,94.40
2022-08-17T19:19:08.004Z,94.50
2022-08-17T19:21:53.008Z,94.50
2022-08-17T19:24:29.940Z,94.60
2022-08-17T19:27:20.395Z,94.40
2022-08-17T19:30:03.914Z,94.50
2022-08-17T19:32:35.723Z,94.70
2022-08-17T19:35:05.948Z,94.60
2022-08-17T19:37:50.258Z,94.50
2022-08-17T19:40:53.222Z,94.70
2022-08-17T19:43:49.111Z,94.80
2022-08-17T19:46:43.064Z,94.90
2022-08-17T19:49:32.893Z,94.90
2022-08-17T19:52:26.143Z,94.90
2022-08-17T19:55:02.293Z,94.80
2022-08-17T19:58:04.248Z,95.00
2022-08-17T20:00:34.278Z,95.10
2022-08-17T20:03:25.529Z,95.20
2022-08-17T20:06:12.721Z,95.20
2022-08-17T20:09:17.506Z,95.30
2022-08-17T20:11:56.766Z,95.30
2022-08-17T20:14:57.118Z,95.30
2022-08-17T20:17:30.198Z,95.40
2022-08-17T20:20:19.786Z,95.50
2022-08-17T20:22:52.947Z,95.50
2022-08-17T20:25:46.131Z,95.50
2022-08-17T20:28:23.775Z,95.60
2022-08-17T20:30:51.735Z,95.60
2022-08-17T20:33:34.189Z,95.60
2022-08-17T20:36:15.961Z,95.60
2022-08-17T20:38:54.979Z,95.60
2022-08-17T20:41:28.800Z,95.60
2022-08-17T20:43:55.703Z,95.70
2022-08-17T20:46:37.883Z,95.70
2022-08-17T20:49:44.626Z,95.70
2022-08-17T20:52:16.592Z,95.80
2022-08-17T20:55:02.822Z,95.70
2022-08-17T20:57:32.379Z,95.80
2022-08-17T21:00:01.282Z,95.80
2022-08-17T21:02:29.280Z,95.80
2022-08-17T21:05:07.865Z,95.80
2022-08-17T21:07:54.379Z,95.80
2022-08-17T21:10:23.818Z,95.80
2022-08-17T21:13:13.343Z,95.80
2022-08-17T21:15:47.541Z,95.80
2022-08-17T21:18:44.397Z,95.80
2022-08-17T21:21:41.742Z,95.80
2022-08-17T21:24:19.947Z,95.80
2022-08-17T21:27:20.355Z,95.80
2022-08-17T21:30:02.413Z,95.80
2022-08-17T21:32:39.707Z,95.80
2022-08-17T21:35:11.299Z,95.80
2022-08-17T21:37:42.961Z,95.80
2022-08-17T21:40:18.741Z,95.80
2022-08-17T21:42:48.513Z,95.80
2022-08-17T21:45:24.103Z,95.80
2022-08-17T21:48:12.658Z,95.80
2022-08-17T21:50:41.652Z,95.80
2022-08-17T21:53:12.045Z,95.70
2022-08-17T21:55:39.103Z,95.70
2022-08-17T21:58:19.253Z,96.10
2022-08-17T22:00:46.142Z,95.60
2022-08-17T22:03:24.631Z,95.80
2022-08-17T22:05:51.570Z,95.60
2022-08-17T22:08:23.033Z,95.60
2022-08-17T22:10:51.556Z,95.50
2022-08-17T22:13:18.223Z,95.40
2022-08-17T22:16:28.469Z,95.40
2022-08-17T22:18:57.898Z,95.30
2022-08-17T22:21:25.467Z,95.20
2022-08-17T22:24:05.244Z,95.10
2022-08-17T22:27:06.921Z,95.00
2022-08-17T22:29:47.940Z,95.10
2022-08-17T22:32:34.380Z,95.00
2022-08-17T22:35:32.899Z,95.00
2022-08-17T22:38:18.291Z,94.90
2022-08-17T22:40:57.317Z,95.00
2022-08-17T22:43:28.547Z,94.90
2022-08-17T22:45:59.761Z,94.80
2022-08-17T22:48:29.196Z,94.80
2022-08-17T22:51:12.258Z,94.80
2022-08-17T22:54:14.225Z,94.80
2022-08-17T22:57:19.860Z,94.70
2022-08-17T22:59:52.915Z,94.70
2022-08-17T23:02:29.933Z,94.60
2022-08-17T23:05:12.894Z,94.70
2022-08-17T23:07:44.637Z,94.70
2022-08-17T23:10:12.513Z,94.60
2022-08-17T23:12:40.251Z,94.60
2022-08-17T23:15:15.376Z,94.60
2022-08-17T23:17:42.992Z,94.60
2022-08-17T23:20:15.217Z,94.50
2022-08-17T23:22:51.186Z,94.50
2022-08-17T23:25:27.817Z,94.50
2022-08-17T23:27:55.342Z,94.50
2022-08-17T23:30:25.413Z,94.50
2022-08-17T23:32:54.297Z,94.40
2022-08-17T23:35:40.149Z,94.30
2022-08-17T23:38:09.970Z,94.20
2022-08-17T23:40:37.878Z,94.20
2022-08-17T23:43:23.646Z,94.20
2022-08-17T23:45:53.492Z,94.20
2022-08-17T23:48:28.432Z,94.10
2022-08-17T23:51:09.587Z,94.40
2022-08-17T23:53:39.010Z,94.00
2022-08-17T23:56:10.464Z,93.90
2022-08-17T23:58:42.626Z,93.90
